Time;durP1;ratioP1;P1;durP2;ratioP2;P2;SDS_P1;SDS_P2;PMS_P1;PMS_P2;Temp;Humidity;BMP_temperature;BMP_pressure;BME280_temperature;BME280_humidity;BME280_pressure;Samples;Min_cycle;Max_cycle;Signal;HPM_P1;HPM_P2
2021/04/02 00:00:20;;;;;;;4.27;2.00;;;8.70;1.00;;;;;;5052716;28;20900;-71
2021/04/02 00:02:46;;;;;;;3.67;2.60;;;;;;;;;;5052438;28;20509;-71
2021/04/02 00:05:20;;;;;;;2.40;2.10;;;8.60;1.00;;;;;;5052997;28;20947;-74
2021/04/02 00:07:46;;;;;;;3.60;2.67;;;;;;;;;;5073203;28;20424;-74
2021/04/02 00:10:16;;;;;;;4.67;2.67;;;8.60;1.00;;;;;;5075507;28;20428;-74
2021/04/02 00:12:42;;;;;;;11.10;3.27;;;;;;;;;;5067772;28;20479;-74
2021/04/02 00:15:14;;;;;;;9.83;2.87;;;8.50;1.00;;;;;;5066931;28;20519;-74
2021/04/02 00:17:40;;;;;;;6.80;2.40;;;;;;;;;;5088620;28;20806;-74
2021/04/02 00:20:12;;;;;;;6.63;3.30;;;8.40;1.00;;;;;;5099733;28;20444;-71
2021/04/02 00:22:38;;;;;;;6.17;3.00;;;;;;;;;;5099856;28;20881;-71
2021/04/02 00:25:04;;;;;;;5.67;3.10;;;8.30;1.00;;;;;;5068400;28;20785;-71
2021/04/02 00:27:30;;;;;;;5.87;3.00;;;;;;;;;;5059180;28;20417;-71
2021/04/02 00:29:56;;;;;;;6.23;3.27;;;;;;;;;;5066217;28;20413;-71
2021/04/02 00:32:22;;;;;;;4.97;2.80;;;;;;;;;;5070294;28;20505;-71
2021/04/02 00:34:49;;;;;;;6.70;2.70;;;;;;;;;;5059308;28;20873;-71
2021/04/02 00:37:15;;;;;;;10.27;2.73;;;;;;;;;;5067376;28;20470;-71
2021/04/02 00:39:41;;;;;;;6.63;3.50;;;;;;;;;;5075488;28;20469;-71
2021/04/02 00:42:07;;;;;;;5.10;3.30;;;8.10;1.00;;;;;;5077482;28;20416;-71
2021/04/02 00:44:33;;;;;;;7.00;2.97;;;;;;;;;;5079060;28;20736;-71
2021/04/02 00:46:59;;;;;;;5.47;3.00;;;;;;;;;;5077542;28;20419;-71
2021/04/02 00:49:25;;;;;;;4.53;3.27;;;;;;;;;;5072008;28;20471;-74
2021/04/02 00:51:51;;;;;;;6.30;3.50;;;;;;;;;;5059047;28;20402;-74
2021/04/02 00:54:17;;;;;;;7.70;3.63;;;;;;;;;;5073319;28;20421;-74
2021/04/02 00:56:43;;;;;;;11.67;3.83;;;;;;;;;;5067325;28;20916;-74
2021/04/02 00:59:09;;;;;;;10.37;5.03;;;8.00;1.00;;;;;;5078945;28;20456;-74
2021/04/02 01:01:35;;;;;;;6.03;3.87;;;;;;;;;;5074409;28;20453;-74
2021/04/02 01:04:01;;;;;;;7.73;4.33;;;;;;;;;;5058837;28;20420;-74
2021/04/02 01:06:27;;;;;;;9.77;3.83;;;;;;;;;;5074587;28;20422;-71
2021/04/02 01:08:54;;;;;;;7.00;3.43;;;;;;;;;;5066445;28;20418;-71
2021/04/02 01:11:21;;;;;;;3.80;3.00;;;7.90;1.00;;;;;;5076253;28;20888;-71
2021/04/02 01:13:51;;;;;;;6.83;3.80;;;7.90;1.00;;;;;;5069141;28;20572;-71
2021/04/02 01:16:21;;;;;;;7.13;3.77;;;7.70;1.00;;;;;;5058726;28;20456;-71
2021/04/02 01:19:13;;;;;;;6.90;3.73;;;7.70;1.00;;;;;;5056679;28;20449;-71
2021/04/02 01:21:57;;;;;;;4.50;3.07;;;7.80;1.00;;;;;;5055580;28;20443;-74
2021/04/02 01:24:23;;;;;;;9.83;4.17;;;;;;;;;;5055555;28;20387;-74
2021/04/02 01:27:10;;;;;;;7.07;3.93;;;7.70;1.00;;;;;;5069028;28;20429;-74
2021/04/02 01:29:55;;;;;;;10.00;3.90;;;7.60;1.00;;;;;;5056706;28;20453;-74
2021/04/02 01:32:29;;;;;;;5.80;4.00;;;7.60;1.00;;;;;;5055040;28;20386;-74
2021/04/02 01:35:24;;;;;;;7.23;3.23;;;7.60;1.00;;;;;;5055703;28;20414;-74
2021/04/02 01:38:10;;;;;;;7.80;4.00;;;7.50;1.00;;;;;;5074945;28;20965;-74
2021/04/02 01:40:43;;;;;;;5.70;3.70;;;7.50;1.00;;;;;;5055171;28;20418;-74
2021/04/02 01:43:12;;;;;;;8.00;3.67;;;7.60;1.00;;;;;;5055215;28;20736;-74
2021/04/02 01:45:40;;;;;;;9.10;4.33;;;7.50;1.00;;;;;;5055289;28;20399;-74
2021/04/02 01:48:07;;;;;;;6.00;3.87;;;7.50;1.00;;;;;;5054978;28;20472;-75
2021/04/02 01:50:33;;;;;;;7.90;4.40;;;;;;;;;;5058209;28;20571;-74
2021/04/02 01:53:00;;;;;;;9.40;3.83;;;;;;;;;;5075100;28;20469;-74
2021/04/02 01:55:26;;;;;;;5.97;3.93;;;;;;;;;;5061915;28;20783;-74
2021/04/02 01:57:52;;;;;;;6.00;3.47;;;;;;;;;;5071024;28;20428;-74
2021/04/02 02:00:27;;;;;;;12.90;4.63;;;7.50;1.00;;;;;;5075074;28;20464;-74
2021/04/02 02:02:58;;;;;;;8.37;3.80;;;7.50;1.00;;;;;;5056390;28;20429;-75
2021/04/02 02:05:24;;;;;;;5.20;3.43;;;;;;;;;;5055360;28;20422;-74
2021/04/02 02:07:50;;;;;;;6.10;4.27;;;7.30;1.00;;;;;;5055120;28;20410;-74
2021/04/02 02:10:20;;;;;;;5.67;3.83;;;7.40;1.00;;;;;;5054599;28;20395;-75
2021/04/02 02:12:48;;;;;;;11.37;4.40;;;7.40;1.00;;;;;;5054487;28;20417;-74
2021/04/02 02:15:15;;;;;;;6.30;3.60;;;7.40;1.00;;;;;;5061569;28;20943;-74
2021/04/02 02:17:45;;;;;;;9.73;4.00;;;7.30;1.00;;;;;;5085831;28;20482;-74
2021/04/02 02:20:12;;;;;;;8.27;4.40;;;7.40;1.00;;;;;;5094999;28;20946;-74
2021/04/02 02:22:39;;;;;;;7.43;3.70;;;;;;;;;;5080128;28;20428;-74
2021/04/02 02:25:07;;;;;;;7.37;4.70;;;7.20;1.00;;;;;;5074170;28;20386;-75
2021/04/02 02:27:35;;;;;;;18.20;5.33;;;7.10;1.00;;;;;;5072837;28;20904;-75
2021/04/02 02:30:01;;;;;;;7.63;3.90;;;;;;;;;;5073039;28;20417;-75
2021/04/02 02:32:27;;;;;;;9.30;4.10;;;7.20;1.00;;;;;;5071912;28;20464;-74
2021/04/02 02:34:54;;;;;;;5.37;3.73;;;7.10;1.00;;;;;;5074202;28;20421;-73
2021/04/02 02:37:20;;;;;;;8.27;3.90;;;;;;;;;;5073019;28;20781;-71
2021/04/02 02:39:46;;;;;;;9.80;4.83;;;;;;;;;;5068186;28;21026;-71
2021/04/02 02:42:12;;;;;;;7.70;4.00;;;;;;;;;;5073776;28;20414;-71
2021/04/02 02:44:38;;;;;;;7.33;4.57;;;;;;;;;;5073183;28;20432;-71
2021/04/02 02:47:08;;;;;;;7.10;4.10;;;7.20;1.00;;;;;;5073837;28;20860;-71
2021/04/02 02:49:35;;;;;;;7.00;4.50;;;;;;;;;;5071757;28;20180;-71
2021/04/02 02:52:01;;;;;;;6.10;3.23;;;7.20;1.00;;;;;;5074145;28;20745;-71
2021/04/02 02:54:29;;;;;;;8.93;4.87;;;7.10;1.00;;;;;;5070417;28;20863;-71
2021/04/02 02:56:57;;;;;;;6.80;4.33;;;7.20;1.00;;;;;;5070467;28;20479;-71
2021/04/02 02:59:25;;;;;;;7.40;4.10;;;7.20;1.00;;;;;;5072922;28;20964;-71
2021/04/02 03:01:53;;;;;;;6.60;4.10;;;7.20;1.00;;;;;;5073135;28;20421;-71
2021/04/02 03:04:21;;;;;;;10.67;4.30;;;7.20;1.00;;;;;;5073528;28;20428;-71
2021/04/02 03:06:49;;;;;;;6.83;3.77;;;7.20;1.00;;;;;;5072843;28;20396;-71
2021/04/02 03:09:17;;;;;;;6.23;3.93;;;7.20;1.00;;;;;;5072372;28;20413;-72
2021/04/02 03:11:44;;;;;;;8.80;4.20;;;7.20;1.00;;;;;;5073178;28;20397;-71
2021/04/02 03:14:14;;;;;;;6.60;3.70;;;7.20;1.00;;;;;;5072998;28;20935;-71
2021/04/02 03:16:47;;;;;;;6.47;3.70;;;7.30;1.00;;;;;;5070344;28;20420;-71
2021/04/02 03:19:16;;;;;;;8.17;3.80;;;7.30;1.00;;;;;;5054551;28;20450;-71
2021/04/02 03:21:43;;;;;;;6.20;3.57;;;7.40;1.00;;;;;;5053570;28;20470;-71
2021/04/02 03:24:09;;;;;;;6.10;3.80;;;7.50;1.00;;;;;;5072808;28;20463;-71
2021/04/02 03:26:37;;;;;;;8.27;3.80;;;7.50;1.00;;;;;;5058762;28;20410;-71
2021/04/02 03:29:04;;;;;;;5.37;3.83;;;7.60;1.00;;;;;;5066375;28;21113;-71
2021/04/02 03:31:34;;;;;;;4.77;3.43;;;7.60;1.00;;;;;;5055382;28;20453;-71
2021/04/02 03:34:01;;;;;;;5.63;3.03;;;7.80;1.00;;;;;;5053351;28;20426;-71
2021/04/02 03:36:29;;;;;;;4.57;2.70;;;7.80;1.00;;;;;;5053464;28;20771;-74
2021/04/02 03:38:56;;;;;;;6.00;4.00;;;7.80;1.00;;;;;;5059766;28;20460;-75
2021/04/02 03:41:28;;;;;;;7.00;3.80;;;7.80;1.00;;;;;;5072231;28;20382;-74
2021/04/02 03:43:54;;;;;;;6.30;3.97;;;7.90;1.00;;;;;;5071684;28;20390;-74
2021/04/02 03:46:22;;;;;;;6.60;3.87;;;8.00;1.00;;;;;;5052857;28;20795;-74
2021/04/02 03:48:49;;;;;;;5.40;3.70;;;8.10;1.00;;;;;;5052685;28;20744;-75
2021/04/02 03:51:19;;;;;;;6.53;3.90;;;8.00;1.00;;;;;;5053477;28;20406;-71
2021/04/02 03:53:48;;;;;;;4.57;3.50;;;8.00;1.00;;;;;;5052723;28;20447;-71
2021/04/02 03:56:19;;;;;;;7.90;4.33;;;8.00;1.00;;;;;;5061136;28;20690;-71
2021/04/02 03:58:46;;;;;;;8.10;3.53;;;8.00;1.00;;;;;;5062335;28;20838;-71
2021/04/02 04:01:15;;;;;;;5.57;3.77;;;8.00;1.00;;;;;;5054258;28;20387;-71
2021/04/02 04:03:44;;;;;;;5.00;3.33;;;8.00;1.00;;;;;;5071408;28;20490;-71
2021/04/02 04:06:15;;;;;;;7.13;3.67;;;8.10;1.00;;;;;;5073060;28;20759;-72
2021/04/02 04:08:42;;;;;;;5.03;3.00;;;8.00;1.00;;;;;;5072288;28;20422;-71
2021/04/02 04:11:10;;;;;;;5.43;3.83;;;7.90;1.00;;;;;;5072665;28;20472;-71
2021/04/02 04:13:38;;;;;;;5.70;3.33;;;7.70;1.00;;;;;;5064110;28;20446;-71
2021/04/02 04:16:05;;;;;;;4.93;3.37;;;7.80;1.00;;;;;;5052500;28;20444;-71
2021/04/02 04:18:33;;;;;;;9.30;3.80;;;7.80;1.00;;;;;;5055134;28;20481;-71
2021/04/02 04:21:02;;;;;;;26.53;5.13;;;7.70;1.00;;;;;;5052912;28;20482;-72
2021/04/02 04:23:29;;;;;;;6.80;3.90;;;;;;;;;;5052562;28;20798;-71
2021/04/02 04:25:57;;;;;;;7.23;4.10;;;7.50;1.00;;;;;;5052192;28;20729;-71
2021/04/02 04:28:24;;;;;;;4.33;3.30;;;7.50;1.00;;;;;;5052463;28;20421;-71
2021/04/02 04:30:53;;;;;;;11.40;4.40;;;7.50;1.00;;;;;;5071918;28;20892;-71
2021/04/02 04:33:20;;;;;;;8.20;4.53;;;7.30;1.00;;;;;;5072491;28;20946;-71
2021/04/02 04:35:47;;;;;;;7.17;3.77;;;7.30;1.00;;;;;;5072509;28;20386;-71
2021/04/02 04:38:13;;;;;;;6.83;3.60;;;;;;;;;;5069941;28;20425;-75
2021/04/02 04:40:40;;;;;;;8.27;3.97;;;7.30;1.00;;;;;;5052080;28;20798;-74
2021/04/02 04:43:09;;;;;;;5.80;3.70;;;7.30;1.00;;;;;;5059639;28;20413;-74
2021/04/02 04:45:35;;;;;;;8.87;4.43;;;;;;;;;;5072367;28;20776;-74
2021/04/02 04:48:01;;;;;;;8.57;4.03;;;;;;;;;;5071992;28;20436;-74
2021/04/02 04:50:27;;;;;;;4.20;2.70;;;;;;;;;;5068136;28;20412;-74
2021/04/02 04:52:58;;;;;;;14.50;3.00;;;7.10;1.00;;;;;;5073055;28;20397;-71
2021/04/02 04:55:26;;;;;;;6.73;3.77;;;7.10;1.00;;;;;;5074460;28;20512;-71
2021/04/02 04:57:55;;;;;;;5.17;3.50;;;7.10;1.00;;;;;;5070309;28;20795;-71
2021/04/02 05:00:23;;;;;;;4.30;2.93;;;7.00;1.00;;;;;;5067646;28;20472;-71
2021/04/02 05:02:50;;;;;;;5.63;3.77;;;7.00;1.00;;;;;;5070486;28;20524;-71
2021/04/02 05:05:39;;;;;;;5.40;3.43;;;7.00;1.00;;;;;;5075754;28;20496;-71
2021/04/02 05:08:06;;;;;;;7.93;3.93;;;7.00;1.00;;;;;;5056356;28;20456;-74
2021/04/02 05:10:33;;;;;;;5.27;3.30;;;7.00;1.00;;;;;;5055636;28;20727;-74
2021/04/02 05:13:01;;;;;;;6.60;3.10;;;7.10;1.00;;;;;;5071386;28;20428;-74
2021/04/02 05:15:27;;;;;;;5.03;3.23;;;;;;;;;;5077689;28;20516;-74
2021/04/02 05:17:53;;;;;;;5.37;3.40;;;7.20;1.00;;;;;;5059065;28;20772;-75
2021/04/02 05:20:25;;;;;;;5.73;3.20;;;7.30;1.00;;;;;;5055612;28;20488;-74
2021/04/02 05:22:51;;;;;;;9.77;4.03;;;;;;;;;;5056041;28;20407;-71
2021/04/02 05:25:17;;;;;;;4.50;3.10;;;;;;;;;;5073753;28;20405;-71
2021/04/02 05:27:43;;;;;;;5.27;2.67;;;;;;;;;;5075408;28;20743;-71
2021/04/02 05:30:09;;;;;;;7.70;3.60;;;7.80;1.00;;;;;;5073627;28;20441;-71
2021/04/02 05:32:35;;;;;;;4.93;2.87;;;;;;;;;;5057686;28;20520;-71
2021/04/02 05:35:01;;;;;;;5.03;3.10;;;;;;;;;;5066755;28;20524;-75
2021/04/02 05:37:30;;;;;;;5.03;2.90;;;7.90;1.00;;;;;;5074975;28;20458;-81
2021/04/02 05:39:56;;;;;;;3.13;2.47;;;;;;;;;;5075034;28;20461;-80
2021/04/02 05:42:23;;;;;;;3.67;2.87;;;8.00;1.00;;;;;;5073216;28;20396;-82
2021/04/02 05:44:51;;;;;;;2.50;2.30;;;8.00;1.00;;;;;;5056068;28;20811;-75
2021/04/02 05:47:17;;;;;;;4.17;3.10;;;;;;;;;;5074051;28;20889;-74
2021/04/02 05:49:45;;;;;;;2.50;2.10;;;8.00;1.00;;;;;;5062816;28;20426;-75
2021/04/02 05:52:12;;;;;;;5.30;3.30;;;8.10;1.00;;;;;;5071722;28;20415;-74
2021/04/02 05:54:43;;;;;;;3.17;2.70;;;8.30;1.00;;;;;;5065871;28;20422;-73
2021/04/02 05:57:09;;;;;;;2.83;2.33;;;8.10;1.00;;;;;;5064440;28;20421;-73
2021/04/02 05:59:37;;;;;;;4.00;2.73;;;8.30;1.00;;;;;;5066521;28;20464;-75
2021/04/02 06:02:04;;;;;;;4.87;3.10;;;8.40;1.00;;;;;;5054804;28;20391;-74
2021/04/02 06:04:31;;;;;;;4.60;2.77;;;8.30;1.00;;;;;;5067112;28;20902;-74
2021/04/02 06:06:57;;;;;;;19.77;3.60;;;;;;;;;;5075077;28;20782;-71
2021/04/02 06:09:24;;;;;;;3.10;2.37;;;8.40;1.00;;;;;;5074542;28;20478;-71
2021/04/02 06:11:50;;;;;;;4.73;2.83;;;;;;;;;;5063196;28;20422;-71
2021/04/02 06:14:16;;;;;;;4.07;2.60;;;;;;;;;;5054582;28;20428;-71
2021/04/02 06:16:49;;;;;;;5.23;3.23;;;8.50;1.00;;;;;;5054555;28;20750;-71
2021/04/02 06:19:15;;;;;;;4.70;3.17;;;;;;;;;;5057187;28;20460;-71
2021/04/02 06:21:46;;;;;;;3.53;3.00;;;8.80;1.00;;;;;;5063597;28;20414;-71
2021/04/02 06:24:13;;;;;;;3.13;2.77;;;8.80;1.00;;;;;;5054732;28;20395;-74
2021/04/02 06:26:39;;;;;;;2.83;2.40;;;;;;;;;;5054293;28;20935;-74
2021/04/02 06:29:05;;;;;;;6.90;3.53;;;8.90;1.00;;;;;;5054607;28;20397;-74
2021/04/02 06:31:35;;;;;;;4.27;2.90;;;;;;;;;;5054042;28;20403;-74
2021/04/02 06:34:06;;;;;;;5.50;3.57;;;9.10;1.00;;;;;;5054243;28;20772;-74
2021/04/02 06:36:32;;;;;;;5.60;3.00;;;;;;;;;;5069597;28;20468;-74
2021/04/02 06:39:00;;;;;;;4.10;2.60;;;9.00;1.00;;;;;;5072066;28;20938;-74
2021/04/02 06:41:31;;;;;;;5.03;3.33;;;9.00;1.00;;;;;;5074121;28;20390;-74
2021/04/02 06:43:59;;;;;;;5.20;2.90;;;9.10;1.00;;;;;;5074034;28;20398;-74
2021/04/02 06:46:35;;;;;;;5.77;2.90;;;9.00;1.00;;;;;;5073263;28;20390;-74
2021/04/02 06:49:20;;;;;;;5.10;3.00;;;9.10;1.00;;;;;;5053871;28;20822;-74
2021/04/02 06:51:50;;;;;;;4.00;3.10;;;9.20;1.00;;;;;;5053671;28;20430;-74
2021/04/02 06:54:18;;;;;;;6.03;3.27;;;9.20;1.00;;;;;;5054216;28;20405;-71
2021/04/02 06:57:07;;;;;;;5.40;3.00;;;9.10;1.00;;;;;;5057206;28;20456;-71
2021/04/02 06:59:34;;;;;;;4.13;3.10;;;9.20;1.00;;;;;;5063816;28;20972;-71
2021/04/02 07:02:02;;;;;;;3.53;2.53;;;9.20;1.00;;;;;;5058027;28;21797;-71
2021/04/02 07:04:29;;;;;;;3.77;2.67;;;9.00;1.00;;;;;;5053535;28;20891;-71
2021/04/02 07:06:57;;;;;;;5.30;3.07;;;9.20;1.00;;;;;;5053634;28;20920;-71
2021/04/02 07:09:25;;;;;;;4.70;3.37;;;9.30;1.00;;;;;;5053708;28;20410;-71
2021/04/02 07:11:59;;;;;;;3.80;3.00;;;9.40;1.00;;;;;;5053377;28;20395;-71
2021/04/02 07:14:26;;;;;;;3.63;2.60;;;9.50;1.00;;;;;;5053390;28;20421;-71
2021/04/02 07:16:53;;;;;;;3.87;3.17;;;;;;;;;;5053602;28;20905;-71
2021/04/02 07:19:19;;;;;;;6.50;4.00;;;;;;;;;;5053348;28;20430;-71
2021/04/02 07:21:45;;;;;;;3.60;3.07;;;;;;;;;;5053364;28;20437;-71
2021/04/02 07:24:11;;;;;;;5.13;3.30;;;;;;;;;;5065553;28;20444;-74
2021/04/02 07:26:38;;;;;;;4.80;3.27;;;9.30;1.00;;;;;;5073067;28;20382;-74
2021/04/02 07:29:04;;;;;;;6.00;3.60;;;9.40;1.00;;;;;;5057005;28;20410;-74
2021/04/02 07:31:31;;;;;;;3.93;3.10;;;;;;;;;;5072952;28;20792;-74
2021/04/02 07:33:57;;;;;;;5.07;3.23;;;;;;;;;;5071662;28;20409;-74
2021/04/02 07:36:25;;;;;;;5.20;3.27;;;9.70;1.00;;;;;;5057569;28;20430;-74
2021/04/02 07:38:52;;;;;;;6.27;3.60;;;9.60;1.00;;;;;;5061040;28;20452;-74
2021/04/02 07:41:19;;;;;;;5.53;3.20;;;11.30;1.00;;;;;;5053649;28;20978;-74
2021/04/02 07:43:51;;;;;;;4.83;3.60;;;9.80;1.00;;;;;;5053012;28;20881;-76
2021/04/02 07:46:20;;;;;;;11.43;3.70;;;9.70;1.00;;;;;;5071658;28;20401;-79
2021/04/02 07:49:10;;;;;;;5.03;3.53;;;9.60;1.00;;;;;;5072971;28;20402;-77
2021/04/02 07:51:50;;;;;;;6.73;3.70;;;9.80;1.00;;;;;;5072896;28;20426;-78
2021/04/02 07:54:21;;;;;;;8.37;3.90;;;9.70;1.00;;;;;;5072111;28;20822;-76
2021/04/02 07:56:51;;;;;;;5.53;3.50;;;9.80;1.00;;;;;;5057754;28;20452;-76
2021/04/02 07:59:17;;;;;;;9.80;3.40;;;;;;;;;;5053803;28;20457;-76
2021/04/02 08:02:01;;;;;;;4.73;3.30;;;9.50;1.00;;;;;;5065629;28;20429;-76
2021/04/02 08:04:49;;;;;;;5.40;3.63;;;9.50;1.00;;;;;;5057292;28;20492;-76
2021/04/02 08:07:16;;;;;;;4.67;3.60;;;9.60;1.00;;;;;;5072941;28;20455;-76
2021/04/02 08:09:51;;;;;;;6.10;3.37;;;9.70;1.00;;;;;;5073303;28;20404;-79
2021/04/02 08:12:20;;;;;;;4.57;3.13;;;9.60;1.00;;;;;;5069421;28;20408;-79
2021/04/02 08:14:50;;;;;;;3.87;3.00;;;9.80;1.00;;;;;;5072313;28;20483;-80
2021/04/02 08:17:23;;;;;;;6.07;3.37;;;9.70;1.00;;;;;;5071190;28;20410;-79
2021/04/02 08:20:17;;;;;;;9.40;3.53;;;9.70;1.00;;;;;;5071611;28;20487;-79
2021/04/02 08:22:43;;;;;;;6.60;3.60;;;9.80;1.00;;;;;;5066254;28;20437;-81
2021/04/02 08:25:34;;;;;;;3.93;2.93;;;9.90;1.00;;;;;;5052799;28;20456;-79
2021/04/02 08:28:10;;;;;;;5.50;3.33;;;9.90;1.00;;;;;;5054765;28;20426;-75
2021/04/02 08:30:36;;;;;;;7.73;4.47;;;10.20;1.00;;;;;;5077087;28;20401;-74
2021/04/02 08:33:07;;;;;;;5.10;3.27;;;10.20;1.00;;;;;;5064789;28;20492;-74
2021/04/02 08:35:34;;;;;;;4.43;3.37;;;10.10;1.00;;;;;;5077374;28;20388;-74
2021/04/02 08:38:02;;;;;;;7.50;3.67;;;10.00;1.00;;;;;;5075543;28;20500;-74
2021/04/02 08:40:29;;;;;;;5.77;3.90;;;10.10;1.00;;;;;;5077584;28;20514;-74
2021/04/02 08:43:09;;;;;;;5.83;3.20;;;10.30;1.00;;;;;;5075625;28;20405;-74
2021/04/02 08:45:38;;;;;;;6.73;4.07;;;10.30;1.00;;;;;;5076022;28;20390;-75
2021/04/02 08:48:04;;;;;;;7.00;4.00;;;10.30;1.00;;;;;;5058651;28;20904;-74
2021/04/02 08:50:31;;;;;;;6.27;3.63;;;;;;;;;;5075813;28;20433;-74
2021/04/02 08:53:10;;;;;;;9.07;3.20;;;10.30;1.00;;;;;;5074954;28;20852;-74
2021/04/02 08:55:36;;;;;;;6.27;3.67;;;10.30;1.00;;;;;;5077067;28;20421;-71
2021/04/02 08:58:03;;;;;;;5.70;4.07;;;10.40;1.00;;;;;;5075352;28;20437;-71
2021/04/02 09:00:29;;;;;;;7.10;4.10;;;;;;;;;;5070974;28;20506;-71
2021/04/02 09:02:55;;;;;;;5.67;3.60;;;;;;;;;;5071808;28;20434;-71
2021/04/02 09:05:21;;;;;;;7.50;3.30;;;10.30;1.00;;;;;;5076673;28;20400;-71
2021/04/02 09:07:46;;;;;;;16.10;4.30;;;10.20;1.00;;;;;;5085013;28;20426;-71
2021/04/02 09:10:12;;;;;;;8.00;4.20;;;10.40;1.00;;;;;;5070952;28;20531;-71
2021/04/02 09:12:42;;;;;;;6.07;3.83;;;10.40;1.00;;;;;;5073641;28;20180;-71
2021/04/02 09:15:17;;;;;;;5.00;3.40;;;10.40;1.00;;;;;;5075514;28;20344;-71
2021/04/02 09:17:43;;;;;;;4.20;3.07;;;;;;;;;;5075335;28;20416;-71
2021/04/02 09:20:09;;;;;;;4.77;3.10;;;10.60;1.00;;;;;;5070522;28;20460;-71
2021/04/02 09:22:35;;;;;;;3.97;2.93;;;;;;;;;;5089465;28;20908;-71
2021/04/02 09:25:01;;;;;;;5.50;3.60;;;;;;;;;;5079451;28;20475;-71
2021/04/02 09:27:28;;;;;;;9.67;3.63;;;;;;;;;;5074690;28;20390;-71
2021/04/02 09:29:57;;;;;;;12.00;3.73;;;;;;;;;;5056953;28;20418;-71
2021/04/02 09:32:27;;;;;;;4.27;3.43;;;11.10;1.00;;;;;;5055063;28;20469;-71
2021/04/02 09:34:54;;;;;;;8.47;4.40;;;11.10;1.00;;;;;;5070691;28;20455;-71
2021/04/02 09:37:20;;;;;;;9.70;4.67;;;;;;;;;;5075050;28;20422;-72
2021/04/02 09:39:46;;;;;;;6.17;3.90;;;;;;;;;;5073788;28;20465;-72
2021/04/02 09:42:16;;;;;;;67.57;4.20;;;10.90;1.00;;;;;;5075274;28;20492;-72
2021/04/02 09:44:46;;;;;;;4.83;3.50;;;11.00;1.00;;;;;;5073874;28;20451;-72
2021/04/02 09:47:13;;;;;;;16.77;3.60;;;;;;;;;;5072833;28;20417;-72
2021/04/02 09:49:41;;;;;;;9.40;3.80;;;11.10;1.00;;;;;;5073878;28;20795;-72
2021/04/02 09:52:08;;;;;;;21.70;5.43;;;11.10;1.00;;;;;;5070503;28;20422;-72
2021/04/02 09:54:35;;;;;;;6.40;3.60;;;11.30;1.00;;;;;;5073117;28;20405;-72
2021/04/02 09:57:07;;;;;;;6.80;3.70;;;11.50;1.00;;;;;;5061704;28;20444;-74
2021/04/02 09:59:33;;;;;;;5.83;3.33;;;;;;;;;;5073140;28;20468;-74
2021/04/02 10:01:59;;;;;;;5.77;3.70;;;;;;;;;;5063573;28;20937;-74
2021/04/02 10:04:28;;;;;;;5.83;3.30;;;;;;;;;;5067142;28;20897;-74
2021/04/02 10:06:54;;;;;;;6.33;3.70;;;;;;;;;;5080534;28;20507;-74
2021/04/02 10:09:20;;;;;;;9.50;5.60;;;;;;;;;;5083308;28;20423;-74
2021/04/02 10:11:48;;;;;;;7.37;3.50;;;;;;;;;;5074808;28;20974;-71
2021/04/02 10:14:15;;;;;;;4.73;3.40;;;;;;;;;;5061668;28;20930;-72
2021/04/02 10:16:41;;;;;;;6.73;3.70;;;11.00;1.00;;;;;;5080522;28;20419;-72
2021/04/02 10:19:07;;;;;;;9.33;3.03;;;;;;;;;;5072190;28;20453;-71
2021/04/02 10:21:34;;;;;;;15.77;3.23;;;11.70;1.00;;;;;;5069785;28;20908;-72
2021/04/02 10:24:00;;;;;;;7.00;3.30;;;12.00;1.00;;;;;;5068007;28;20410;-72
2021/04/02 10:26:27;;;;;;;4.60;3.07;;;11.90;1.00;;;;;;5055388;28;20477;-74
2021/04/02 10:28:53;;;;;;;5.77;3.43;;;11.90;1.00;;;;;;5056624;28;20418;-74
2021/04/02 10:31:19;;;;;;;4.20;3.03;;;11.90;1.00;;;;;;5055001;28;20365;-74
2021/04/02 10:33:45;;;;;;;4.23;3.00;;;11.80;1.00;;;;;;5058502;28;21177;-74
2021/04/02 10:36:12;;;;;;;6.10;3.20;;;11.50;1.00;;;;;;5055278;28;20583;-74
2021/04/02 10:38:42;;;;;;;7.03;3.53;;;11.70;1.00;;;;;;5054892;28;20528;-74
2021/04/02 10:41:08;;;;;;;6.90;3.50;;;12.20;1.00;;;;;;5061078;28;20522;-71
2021/04/02 10:43:34;;;;;;;9.77;3.90;;;12.40;1.00;;;;;;5071685;28;20413;-72
2021/04/02 10:46:01;;;;;;;4.20;3.00;;;;;;;;;;5071014;28;20420;-72
2021/04/02 10:48:27;;;;;;;5.80;3.50;;;12.50;1.00;;;;;;5068208;28;20417;-72
2021/04/02 10:50:53;;;;;;;6.60;3.20;;;12.40;1.00;;;;;;5054073;28;20373;-72
2021/04/02 10:53:19;;;;;;;4.77;2.97;;;12.30;1.00;;;;;;5058327;28;20254;-71
2021/04/02 10:55:45;;;;;;;11.50;3.30;;;12.60;1.00;;;;;;5072233;28;20554;-74
2021/04/02 10:58:12;;;;;;;4.70;3.23;;;12.90;1.00;;;;;;5060806;28;20520;-74
2021/04/02 11:00:48;;;;;;;6.17;3.10;;;13.10;1.00;;;;;;5054541;28;20473;-74
2021/04/02 11:03:14;;;;;;;6.40;3.50;;;;;;;;;;5061187;28;20429;-74
2021/04/02 11:05:48;;;;;;;3.97;2.87;;;13.40;1.00;;;;;;5071731;28;20437;-77
2021/04/02 11:08:18;;;;;;;6.30;3.13;;;13.70;1.00;;;;;;5074534;28;20441;-76
2021/04/02 11:10:44;;;;;;;10.33;3.03;;;13.80;1.00;;;;;;5074348;28;20472;-70
2021/04/02 11:13:10;;;;;;;5.10;2.63;;;14.10;1.00;;;;;;5087107;28;21131;-72
2021/04/02 11:15:36;;;;;;;5.90;3.73;;;;;;;;;;5090287;28;20617;-73
2021/04/02 11:18:02;;;;;;;5.50;3.80;;;13.90;1.00;;;;;;5054405;28;20762;-73
2021/04/02 11:20:30;;;;;;;5.70;3.20;;;13.60;1.00;;;;;;5054359;28;20446;-74
2021/04/02 11:22:57;;;;;;;5.63;3.50;;;13.50;1.00;;;;;;5054238;28;20170;-75
2021/04/02 11:25:23;;;;;;;5.80;3.60;;;13.50;1.00;;;;;;5053934;28;20398;-73
2021/04/02 11:27:49;;;;;;;8.30;4.10;;;;;;;;;;5054227;28;20855;-72
2021/04/02 11:30:16;;;;;;;5.83;3.80;;;13.30;1.00;;;;;;5069244;28;20790;-74
2021/04/02 11:32:42;;;;;;;5.30;3.20;;;;;;;;;;5054920;28;20449;-73
2021/04/02 11:35:10;;;;;;;4.87;3.40;;;13.80;1.00;;;;;;5054978;28;20460;-72
2021/04/02 11:37:37;;;;;;;6.23;3.70;;;13.90;1.00;;;;;;5070411;28;20421;-71
2021/04/02 11:40:09;;;;;;;5.30;3.30;;;14.10;1.00;;;;;;5071238;28;20755;-72
2021/04/02 11:42:35;;;;;;;5.33;3.83;;;;;;;;;;5073885;28;20450;-71
2021/04/02 11:45:02;;;;;;;5.80;3.63;;;14.60;1.00;;;;;;5069702;28;20422;-72
2021/04/02 11:47:28;;;;;;;6.10;3.30;;;15.00;1.00;;;;;;5053729;28;20448;-72
2021/04/02 11:49:53;;;;;;;5.00;3.17;;;14.80;1.00;;;;;;5053637;28;20402;-72
2021/04/02 11:52:19;;;;;;;7.07;4.27;;;14.50;1.00;;;;;;5061826;28;20167;-71
2021/04/02 11:54:45;;;;;;;8.40;3.93;;;14.40;1.00;;;;;;5089298;28;20178;-72
2021/04/02 11:57:11;;;;;;;5.10;3.70;;;;;;;;;;5070076;28;20580;-74
2021/04/02 11:59:37;;;;;;;5.77;3.70;;;14.30;1.00;;;;;;5073015;28;20661;-73
2021/04/02 12:02:03;;;;;;;5.93;3.40;;;;;;;;;;5073182;28;20437;-74
2021/04/02 12:04:29;;;;;;;6.33;3.50;;;14.30;1.00;;;;;;5072087;28;20543;-74
2021/04/02 12:06:55;;;;;;;6.10;3.77;;;;;;;;;;5071593;28;20441;-74
2021/04/02 12:09:21;;;;;;;8.07;3.50;;;14.10;1.00;;;;;;5071592;28;20686;-74
2021/04/02 12:11:46;;;;;;;6.10;4.00;;;14.20;1.00;;;;;;5071919;28;20429;-71
2021/04/02 12:14:12;;;;;;;6.03;3.23;;;13.90;1.00;;;;;;5053293;28;20192;-71
2021/04/02 12:16:38;;;;;;;28.13;7.17;;;13.80;1.00;;;;;;5057479;28;20626;-71
2021/04/02 12:19:05;;;;;;;5.37;3.80;;;14.10;1.00;;;;;;5066137;28;20620;-71
2021/04/02 12:21:32;;;;;;;4.40;3.43;;;14.30;1.00;;;;;;5053361;28;20611;-72
2021/04/02 12:23:58;;;;;;;5.80;3.27;;;14.40;1.00;;;;;;5053571;28;20881;-72
2021/04/02 12:26:25;;;;;;;6.27;3.80;;;14.40;1.00;;;;;;5053206;28;20399;-73
2021/04/02 12:32:43;;;;;;;6.90;3.60;;;14.50;1.00;;;;;;5072864;28;20898;-77
2021/04/02 12:35:19;;;;;;;8.17;4.07;;;13.90;1.00;;;;;;5062846;28;20453;-77
2021/04/02 12:37:46;;;;;;;5.50;3.27;;;;;;;;;;5072548;28;20432;-74
2021/04/02 12:40:15;;;;;;;6.10;3.70;;;13.50;1.00;;;;;;5073097;28;20462;-73
2021/04/02 12:42:41;;;;;;;6.97;4.20;;;13.60;1.00;;;;;;5058537;28;20460;-74
2021/04/02 12:45:13;;;;;;;8.67;3.70;;;13.50;1.00;;;;;;5070424;28;20470;-73
2021/04/02 12:47:40;;;;;;;10.20;4.00;;;13.50;1.00;;;;;;5073175;28;20419;-75
2021/04/02 12:50:13;;;;;;;8.07;4.00;;;13.60;1.00;;;;;;5082060;28;20394;-75
2021/04/02 12:52:49;;;;;;;6.67;3.90;;;13.60;1.00;;;;;;5090419;28;20910;-75
2021/04/02 12:55:17;;;;;;;5.87;3.60;;;13.70;1.00;;;;;;5073311;28;20437;-74
2021/04/02 12:57:44;;;;;;;6.60;3.97;;;13.60;1.00;;;;;;5073600;28;20439;-72
2021/04/02 13:00:13;;;;;;;5.20;3.77;;;13.80;1.00;;;;;;5073035;28;20988;-72
2021/04/02 13:02:39;;;;;;;5.83;4.50;;;;;;;;;;5066981;28;20807;-72
2021/04/02 13:05:06;;;;;;;8.60;4.00;;;13.70;1.00;;;;;;5059524;28;20508;-74
2021/04/02 13:07:32;;;;;;;6.93;3.37;;;13.70;1.00;;;;;;5069405;28;21098;-74
2021/04/02 13:10:00;;;;;;;7.73;4.70;;;13.80;1.00;;;;;;5072597;28;20421;-74
2021/04/02 13:12:26;;;;;;;6.60;3.73;;;13.80;1.00;;;;;;5073062;28;20421;-73
2021/04/02 13:14:52;;;;;;;4.60;2.83;;;13.90;1.00;;;;;;5075037;28;20755;-73
2021/04/02 13:17:18;;;;;;;9.37;4.10;;;13.90;1.00;;;;;;5076605;28;20641;-73
2021/04/02 13:19:43;;;;;;;6.83;3.70;;;14.00;1.00;;;;;;5064550;28;20724;-73
2021/04/02 13:22:10;;;;;;;5.73;3.77;;;14.20;1.00;;;;;;5060511;28;20164;-73
2021/04/02 13:24:37;;;;;;;6.07;3.90;;;;;;;;;;5067755;28;20258;-73
2021/04/02 13:27:09;;;;;;;5.87;3.50;;;14.00;1.00;;;;;;5057552;28;20865;-72
2021/04/02 13:29:34;;;;;;;8.13;4.00;;;14.00;1.00;;;;;;5062770;28;20400;-72
2021/04/02 13:32:01;;;;;;;4.90;3.77;;;;;;;;;;5063042;28;20450;-73
2021/04/02 13:34:26;;;;;;;5.87;4.00;;;14.20;1.00;;;;;;5072832;28;20187;-73
2021/04/02 13:36:53;;;;;;;5.60;3.90;;;14.30;1.00;;;;;;5064605;28;20423;-73
2021/04/02 13:39:19;;;;;;;6.83;3.67;;;;;;;;;;5063968;28;20551;-72